Home > Products > Valid Products > TAF

000
FTUS46 KHNX 021120
TAFMCE
TAF
KMCE 021120Z 0212/0312 VRB03KT P6SM SKC
     FM021600 34010KT P6SM SKC
     FM030300 VRB03KT P6SM SKC=



000
FTUS46 KHNX 021120
TAFBFL
TAF
KBFL 021120Z 0212/0312 VRB04KT P6SM SKC=



000
FTUS46 KHNX 021120
TAFFAT
TAF
KFAT 021120Z 0212/0312 VRB03KT P6SM SKC
     FM022200 32007KT P6SM SKC
     FM030300 VRB03KT P6SM SKC=



000
FTUS46 KHNX 020520
TAFBFL
TAF
KBFL 020520Z 0206/0306 33005KT P6SM SKC=



000
FTUS46 KHNX 020520
TAFMCE
TAF
KMCE 020520Z 0206/0306 30005KT P6SM SKC=



000
FTUS46 KHNX 020520
TAFFAT
TAF
KFAT 020520Z 0206/0306 30006KT P6SM SKC=



000
FTUS46 KHNX 012320
TAFMCE
TAF
KMCE 012320Z 0200/0224 32010KT P6SM SKC
     FM020400 VRB03KT P6SM SKC=



000
FTUS46 KHNX 012320
TAFFAT
TAF
KFAT 012320Z 0200/0224 VRB04KT P6SM SKC=



000
FTUS46 KHNX 012320
TAFBFL
TAF
KBFL 012320Z 0200/0224 31010KT P6SM SKC
     FM020300 VRB03KT P6SM SKC=



000
FTUS46 KHNX 011736
TAFBFL
TAF
KBFL 011736Z 0118/0218 31010KT P6SM SKC
     FM020300 VRB03KT P6SM SKC=



000
FTUS46 KHNX 011736
TAFMCE
TAF
KMCE 011736Z 0118/0218 33009KT P6SM SKC
     FM020400 VRB03KT P6SM SKC=



000
FTUS46 KHNX 011736
TAFFAT
TAF
KFAT 011736Z 0118/0218 30007KT P6SM SKC
     FM020500 VRB04KT P6SM SKC=



000
FTUS46 KHNX 011120
TAFFAT
TAF
KFAT 011120Z 0112/0212 VRB03KT P6SM SKC
     FM012200 31011KT P6SM SKC
     FM020600 30004KT P6SM SKC=



000
FTUS46 KHNX 011120
TAFBFL
TAF
KBFL 011120Z 0112/0212 VRB04KT P6SM SKC
     FM012200 30010KT P6SM SKC
     FM020300 VRB03KT P6SM SKC=



000
FTUS46 KHNX 011120
TAFMCE
TAF
KMCE 011120Z 0112/0212 VRB03KT P6SM SKC
     FM012200 32011KT P6SM SKC
     FM020500 VRB03KT P6SM SKC=



000
FTUS46 KHNX 010549
TAFFAT
TAF
KFAT 010549Z 0106/0206 32009KT P6SM SKC=



000
FTUS46 KHNX 010549
TAFMCE
TAF
KMCE 010549Z 0106/0206 33007KT P6SM SKC=



000
FTUS46 KHNX 010549
TAFBFL
TAF
KBFL 010549Z 0106/0206 VRB04KT P6SM SKC
     FM012000 30010KT P6SM SKC=



000
FTUS46 KHNX 302320
TAFBFL
TAF
KBFL 302320Z 0100/0124 30010KT P6SM SKC
     FM010300 35007KT P6SM SKC
     FM010800 VRB04KT P6SM SKC
     FM012000 30010KT P6SM SKC=



000
FTUS46 KHNX 302320
TAFFAT
TAF
KFAT 302320Z 0100/0124 31009KT P6SM SKC
     FM010600 VRB04KT P6SM SKC
     FM012300 31007KT P6SM SKC=



000
FTUS46 KHNX 302320
TAFMCE
TAF
KMCE 302320Z 0100/0124 32010KT P6SM SKC
     FM010400 32004KT P6SM SKC
     FM012000 32008KT P6SM SKC=



000
FTUS46 KHNX 301720
TAFFAT
TAF
KFAT 301720Z 3018/0118 VRB04KT P6SM SKC
     FM302200 31009KT P6SM SKC
     FM010600 VRB04KT P6SM SKC=



000
FTUS46 KHNX 301720
TAFMCE
TAF
KMCE 301720Z 3018/0118 32010KT P6SM SKC
     FM010400 32004KT P6SM SKC=



000
FTUS46 KHNX 301720
TAFBFL
TAF
KBFL 301720Z 3018/0118 30010KT P6SM SKC
     FM010300 35007KT P6SM SKC
     FM010800 VRB04KT P6SM SKC=



000
FTUS46 KHNX 301123
TAFBFL
TAF
KBFL 301123Z 3012/0112 12003KT P6SM FEW200
     FM301800 30010KT P6SM SKC
     FM010300 35007KT P6SM SKC=



000
FTUS46 KHNX 301123
TAFMCE
TAF
KMCE 301123Z 3012/0112 35003KT P6SM FEW200
     FM301800 32009G17KT P6SM SKC
     FM010400 33010KT P6SM SKC=



000
FTUS46 KHNX 301123
TAFFAT
TAF
KFAT 301123Z 3012/0112 VRB03KT P6SM FEW200
     FM302100 31008KT P6SM SKC
     FM010600 34008KT P6SM SKC=



000
FTUS46 KHNX 300520
TAFMCE
TAF
KMCE 300520Z 3006/0106 19005KT P6SM SKC
      TEMPO 3014/3016 5SM HZ
     FM301800 32009G17KT P6SM SKC
     FM010200 33007KT P6SM SKC=



000
FTUS46 KHNX 300520
TAFBFL
TAF
KBFL 300520Z 3006/0106 11003KT P6SM SKC
     FM301800 30010KT P6SM SKC
     FM010000 32006KT P6SM SKC=



000
FTUS46 KHNX 300520
TAFFAT
TAF
KFAT 300520Z 3006/0106 VRB03KT P6SM SKC
     FM302100 31008KT P6SM SKC=



000
FTUS46 KHNX 292320
TAFMCE
TAF
KMCE 292320Z 3000/3024 32010KT P6SM SKC
     FM300400 VRB03KT P6SM SKC
      TEMPO 3014/3016 5SM HZ
     FM301800 32009KT P6SM SKC=



000
FTUS46 KHNX 292320
TAFFAT
TAF
KFAT 292320Z 3000/3024 31009KT P6SM SKC
     FM300600 VRB03KT P6SM SKC
     FM302100 31008KT P6SM SKC=



000
FTUS46 KHNX 292320
TAFBFL
TAF
KBFL 292320Z 3000/3024 30010KT P6SM SKC
     FM300300 VRB04KT P6SM SKC
     FM301800 30009KT P6SM SKC=



000
FTUS46 KHNX 291721
TAFFAT
TAF
KFAT 291721Z 2918/3018 VRB04KT P6SM SKC
     FM292300 31009KT P6SM SKC
     FM300600 VRB03KT P6SM SKC=



000
FTUS46 KHNX 291721
TAFMCE
TAF
KMCE 291721Z 2918/3018 VRB04KT P6SM SKC
     FM292000 32010KT P6SM SKC
     FM300400 VRB03KT P6SM SKC
      TEMPO 3014/3016 5SM HZ=



000
FTUS46 KHNX 291721
TAFBFL
TAF
KBFL 291721Z 2918/3018 30010KT P6SM SKC
     FM300300 VRB04KT P6SM SKC=



000
FTUS46 KHNX 291528 AAA
TAFMCE
TAF AMD
KMCE 291528Z 2915/3012 VRB04KT P6SM SKC
      TEMPO 2915/2917 4SM BR
     FM292000 32010KT P6SM SKC=



    US Dept of Commerce
    National Oceanic and Atmospheric Administration
    National Weather Service
    1325 East West Highway
    Silver Spring, MD 20910
    Page Author: NWS Internet Services Team
Disclaimer
Information Quality
Credits
Glossary
Privacy Policy
Freedom of Information Act (FOIA)
About Us
Career Opportunities